AIGUAFREDA (Vallès Oriental)





Hora UTC 20:55
Temperatura 4.9 ºC
Sòl 15 cm 3.1 ºC
Humitat 65.1 %
Pressió 1004.8 hPa
Pluja 0.5 mm
Velocitat vent 1.4 km/h
Direcció vent WNW
Radiació solar 5.1 W/m²

Dades diàries 2024-02-23



Hora UTC (hivern +1h; estiu +2h)
Temperatura (ºC) Humitat (%) Pressió (hPa) Velocitat vent (km/h) Precipitació (mm) Radiació solar (W/m²)
Hora UTC Aire Sòl 15 cm Humitat Pressió Vel. Dir. Vel. Max Dir. Intent. màx 5 min. Rad. Sol.
00:05 10.7 9.6 86.3 1003.0 8.2 SSW 8.2 SW 0.0 0.0
00:10 10.7 9.6 86.4 1003.1 7.7 S 22.3 SSE 0.0 0.0
00:15 10.6 9.6 86.8 1003.0 8.4 SSW 14.2 SSE 0.0 0.0
00:20 10.5 9.5 87.5 1002.9 5.8 S 14.2 SSW 0.0 0.0
00:25 10.5 9.5 88.3 1002.8 6.7 S 14.2 SSE 0.1 0.0
00:30 10.4 9.4 89.0 1002.6 6.9 SSE 14.2 SSE 0.0 0.0
00:35 10.3 9.3 89.6 1002.6 6.2 SSW 11.5 SSE 0.0 0.0
00:40 10.2 9.3 90.2 1002.6 5.7 SW 8.8 SW 0.0 0.0
00:45 10.2 9.3 90.5 1002.7 6.0 SSW 14.2 WSW 0.0 0.0
00:50 10.2 9.4 90.7 1002.4 5.7 S 11.5 SSE 0.1 0.0
00:55 10.2 9.3 91.0 1002.4 6.1 SSW 14.2 SSW 0.0 0.2
01:00 10.2 9.3 91.2 1002.5 7.8 S 14.2 S 0.0 0.6
01:05 10.2 9.2 91.6 1002.6 7.7 S 19.6 SSW 0.1 0.0
01:10 10.1 9.2 91.8 1002.6 8.5 S 16.9 SSE 0.0 0.0
01:15 10.1 9.3 92.2 1002.8 7.1 SSW 11.5 WSW 0.0 0.3
01:20 10.1 9.3 92.4 1002.9 5.8 SSW 14.2 SSE 0.0 0.1
01:25 10.1 9.2 92.7 1003.0 6.8 SSE 14.2 S 0.1 0.6
01:30 10.0 9.1 92.7 1003.0 9.8 SSE 16.9 SSE 0.0 0.0
01:35 9.9 9.0 92.9 1002.9 4.9 SE 14.2 ESE 0.0 1.2
01:40 9.8 8.9 92.9 1002.9 9.4 SE 22.3 SE 0.1 0.1
01:45 9.7 9.0 93.0 1002.8 10.7 SSE 16.9 SSE 0.0 1.6
01:50 9.7 9.0 93.2 1002.7 10.7 SSE 19.6 SSE 0.0 0.5
01:55 9.7 9.0 93.3 1002.7 9.7 SE 22.3 SE 0.0 2.0
02:00 9.8 9.0 93.5 1002.6 10.1 SSE 22.3 S 0.0 0.8
02:05 9.8 9.0 93.7 1002.5 7.9 SE 16.9 S 0.0 0.3
02:10 9.8 9.1 93.8 1002.6 6.6 WSW 14.2 WSW 0.0 0.3
02:15 9.8 9.0 93.9 1002.4 3.6 SW 8.8 W 0.0 4.5
02:20 9.8 9.0 93.9 1002.6 3.6 WSW 8.8 WSW 0.0 1.8
02:25 9.6 8.9 92.8 1002.5 5.9 SSW 16.9 SSW 0.0 3.7
02:30 9.2 8.6 87.8 1002.2 6.8 SW 19.6 SW 0.0 2.4
02:35 9.1 8.4 84.4 1002.4 7.6 SW 16.9 WSW 0.0 3.0
02:40 9.1 8.2 80.3 1002.4 12.2 WSW 27.7 WSW 0.0 3.8
02:45 9.1 8.0 78.0 1002.1 12.5 WSW 25.0 SW 0.0 2.3
02:50 9.0 7.8 77.1 1002.2 8.3 WSW 19.6 SW 0.0 5.3
02:55 9.0 7.6 77.1 1002.2 8.2 WSW 16.9 WSW 0.0 1.9
03:00 8.9 7.5 76.6 1002.1 6.0 SW 14.2 SW 0.0 7.6
03:05 8.9 7.5 76.4 1002.1 9.3 WSW 16.9 W 0.0 0.0
03:10 8.8 7.3 76.0 1002.2 9.3 WSW 16.9 W 0.0 0.0
03:15 8.7 7.2 75.1 1002.1 8.4 WSW 19.6 SW 0.0 0.4
03:20 8.6 7.1 74.7 1002.1 5.6 SSW 14.2 WSW 0.0 7.3
03:25 8.5 6.7 77.6 1002.0 4.4 ENE 8.8 NE 0.0 0.6
03:30 8.3 6.5 80.3 1002.1 2.0 E 6.1 NE 0.0 12.0
03:35 8.1 6.3 81.7 1002.1 3.8 ENE 8.8 NE 0.0 0.2
03:40 7.8 6.1 83.1 1002.2 0.7 NE 6.1 NE 0.0 13.5
03:45 7.6 5.9 84.2 1002.3 0.7 NE 6.1 NE 0.0 0.0
03:50 7.5 5.8 85.3 1002.3 0.3 NNW 3.4 NNW 0.0 10.7
03:55 7.4 5.5 85.5 1002.2 0.1 N 3.4 N 0.0 0.0
04:00 7.1 5.3 86.3 1002.3 2.1 NE 6.1 NE 0.0 10.7
04:05 6.8 5.1 87.5 1002.4 0.9 NNE 3.4 NE 0.0 0.0
04:10 6.6 4.9 88.2 1002.4 0.1 NE 3.4 NE 0.0 0.3
04:15 6.5 4.7 88.9 1002.4 1.2 NW 6.1 NW 0.0 1.0
04:20 6.4 4.8 89.4 1002.4 3.3 NNW 8.8 NNW 0.0 10.7
04:25 6.3 4.8 89.4 1002.4 3.7 NNE 8.8 NE 0.0 1.5
04:30 6.3 4.9 89.3 1002.4 0.9 NE 6.1 ENE 0.0 9.3
04:35 6.2 4.9 89.2 1002.4 0.0 N 3.4 N 0.0 2.3
04:40 6.1 4.7 88.8 1002.4 1.7 NNE 6.1 NE 0.0 6.9
04:45 6.0 4.7 88.3 1002.5 2.5 NW 8.8 NW 0.0 4.4
04:50 6.0 4.8 87.3 1002.5 1.3 ENE 3.4 NE 0.0 4.7
04:55 6.0 4.6 86.5 1002.4 1.2 NE 6.1 ENE 0.0 7.2
05:00 5.8 4.3 86.2 1002.4 2.2 NNE 6.1 ENE 0.0 0.5
05:05 5.7 4.1 86.3 1002.5 2.5 NNW 6.1 NNW 0.0 0.0
05:10 5.6 4.0 85.5 1002.6 3.1 NNE 8.8 NNW 0.0 0.2
05:15 5.5 3.8 85.8 1002.6 0.6 WNW 3.4 NE 0.0 11.0
05:20 5.4 3.7 85.9 1002.6 2.6 NE 6.1 NE 0.0 0.0
05:25 5.2 3.5 85.5 1002.5 2.2 NE 6.1 NE 0.0 6.7
05:30 5.1 3.3 86.0 1002.6 0.6 N 3.4 N 0.0 0.0
05:35 5.0 3.2 86.1 1002.7 0.5 SW 3.4 SW 0.0 8.1
05:40 4.8 3.1 86.2 1002.8 0.1 NNW 3.4 NNW 0.0 0.1
05:45 4.8 3.1 87.2 1002.9 3.0 N 6.1 N 0.0 3.8
05:50 4.8 3.2 87.0 1002.9 2.5 NNE 6.1 N 0.0 0.0
05:55 4.8 3.3 86.9 1002.9 0.0 NNE 0.0 N 0.0 5.4
06:00 4.8 3.2 87.1 1002.9 0.3 S 3.4 SE 0.0 1.5
06:05 4.7 3.1 87.3 1002.9 0.7 NW 3.4 S 0.0 0.2
06:10 4.6 3.0 87.5 1002.9 0.5 NNW 3.4 NNW 0.0 0.2
06:15 4.5 2.8 87.9 1002.9 1.4 NNE 3.4 N 0.0 2.1
06:20 4.4 2.7 88.3 1003.0 0.0 NNE 0.0 NE 0.0 10.1
06:25 4.2 2.5 88.5 1003.2 0.3 WSW 3.4 NE 0.0 2.8
06:30 4.0 2.3 88.9 1003.3 0.0 NNE 0.0 WSW 0.0 14.2
06:35 3.9 2.2 89.6 1003.4 2.1 W 6.1 NE 0.0 3.9
06:40 3.9 2.2 90.1 1003.4 1.5 N 3.4 WNW 0.0 8.3
06:45 3.8 2.2 90.4 1003.5 2.3 NNE 6.1 NNE 0.0 2.1
06:50 3.8 2.3 90.9 1003.7 1.5 NNE 6.1 NNE 0.0 9.1
06:55 3.9 2.6 90.9 1003.7 1.5 W 6.1 WSW 0.0 3.9
07:00 3.9 2.7 90.8 1003.8 2.1 E 6.1 ENE 0.0 3.9
07:05 4.0 2.9 90.9 1003.9 2.2 WSW 8.8 W 0.0 1.3
07:10 4.0 3.0 90.8 1003.9 0.0 NNE 0.0 S 0.0 0.0
07:15 4.1 3.1 90.6 1004.1 0.2 NE 3.4 WSW 0.0 6.2
07:20 4.2 3.2 90.5 1004.2 0.1 SSW 3.4 SSW 0.0 7.8
07:25 4.3 3.3 90.4 1004.2 0.2 SW 3.4 SW 0.0 8.8
07:30 4.3 3.3 90.2 1004.2 0.6 ENE 3.4 WSW 0.0 11.5
07:35 4.4 3.4 90.2 1004.3 0.2 NE 3.4 NE 0.0 11.7
07:40 4.4 3.6 90.2 1004.4 0.0 NNE 0.0 S 0.0 17.7
07:45 4.6 3.6 90.1 1004.4 0.9 NE 6.1 ENE 0.0 10.9
07:50 4.7 3.8 89.3 1004.5 3.2 NNE 6.1 NE 0.0 22.7
07:55 5.0 4.0 87.1 1004.5 3.2 N 8.8 N 0.0 11.2
08:00 5.3 4.2 86.0 1004.5 0.2 E 3.4 NE 0.0 133.6
08:05 5.8 4.8 85.2 1004.5 5.1 SE 8.8 SE 0.0 59.4
08:10 6.4 5.6 82.4 1004.6 4.3 SE 8.8 SE 0.0 106.8
08:15 7.0 5.8 78.2 1004.6 1.8 SE 6.1 SE 0.0 133.9
08:20 7.6 6.7 74.7 1004.6 0.2 E 3.4 SE 0.0 172.5
08:25 8.3 7.6 71.1 1004.6 2.0 E 6.1 ESE 0.0 152.0
08:30 8.7 7.8 69.0 1004.7 3.4 SE 8.8 SE 0.0 144.6
08:35 8.4 8.3 68.7 1004.7 6.0 SE 11.5 SSE 0.0 249.8
08:40 8.4 8.7 68.6 1004.5 7.2 SE 11.5 SE 0.0 240.1
08:45 8.6 9.3 67.6 1004.6 7.8 SE 14.2 SE 0.0 271.5
08:50 8.7 9.9 67.2 1004.6 6.4 SSE 11.5 SE 0.0 282.6
08:55 8.9 10.6 66.5 1004.5 7.4 SE 14.2 ESE 0.0 251.4
09:00 9.1 11.2 66.6 1004.6 7.0 SE 14.2 SSE 0.0 298.5
09:05 9.2 11.6 66.4 1004.7 8.0 SE 14.2 SE 0.0 308.6
09:10 9.4 12.3 66.0 1004.7 7.9 SE 14.2 ESE 0.0 414.2
09:15 9.8 12.7 64.4 1004.7 6.7 SE 11.5 ESE 0.0 358.8
09:20 9.7 12.8 65.0 1004.6 4.2 SE 11.5 S 0.0 349.6
09:25 9.9 13.4 62.7 1004.7 5.0 SE 11.5 SSE 0.0 377.1
09:30 10.0 13.8 59.8 1004.6 8.1 SE 14.2 SE 0.0 399.0
09:35 10.0 13.5 58.2 1004.7 7.6 SSE 19.6 SSE 0.0 330.8
09:40 9.4 11.4 62.2 1004.6 8.2 SE 16.9 SE 0.0 186.7
09:45 9.1 12.1 64.1 1004.6 8.5 SSE 16.9 SE 0.0 415.7
09:50 9.4 12.1 64.7 1004.7 6.6 SSE 14.2 SE 0.0 248.4
09:55 9.4 10.9 64.7 1004.8 6.0 SSW 11.5 SSE 0.0 148.9
10:00 9.0 10.8 66.3 1004.7 4.1 SSE 11.5 SW 0.0 187.6
10:05 8.9 10.5 67.0 1004.7 2.9 SSE 6.1 SE 0.0 127.5
10:10 9.1 10.8 67.1 1004.7 2.6 E 8.8 SE 0.0 158.3
10:15 9.3 11.2 66.0 1004.6 2.2 SSW 11.5 SSW 0.0 186.4
10:20 9.3 12.0 63.8 1004.5 4.6 NNW 16.9 N 0.0 244.6
10:25 9.2 11.2 58.0 1004.7 7.2 NNW 22.3 NW 0.0 227.6
10:30 9.6 12.0 56.8 1004.5 7.6 E 16.9 SE 0.0 309.2
10:35 10.2 13.4 52.7 1004.6 6.1 SSW 16.9 SW 0.0 396.3
10:40 10.8 14.1 51.5 1004.4 5.2 ESE 14.2 SE 0.0 296.2
10:45 11.2 14.7 47.2 1004.5 3.9 SSE 11.5 SSE 0.0 388.8
10:50 11.6 16.2 48.3 1004.4 1.0 SE 6.1 E 0.0 427.1
10:55 12.1 16.2 44.9 1004.5 7.7 WSW 22.3 W 0.0 429.4
11:00 11.7 15.6 46.0 1004.6 9.4 SSW 22.3 SSW 0.0 414.4
11:05 11.6 15.7 46.5 1004.5 9.1 SSE 14.2 SSE 0.0 454.5
11:10 11.7 15.8 46.5 1004.3 8.1 SE 19.6 SSE 0.0 495.5
11:15 11.8 16.7 45.3 1004.4 7.5 WNW 19.6 SW 0.0 461.4
11:20 11.6 15.2 46.2 1004.3 5.3 SSW 19.6 SW 0.0 321.1
11:25 11.7 15.8 45.9 1004.5 9.7 SE 19.6 S 0.0 445.4
11:30 11.3 15.3 45.7 1004.4 13.9 SSE 30.4 SSE 0.0 562.3
11:35 11.5 15.6 45.6 1004.3 5.8 ESE 11.5 NNE 0.0 496.6
11:40 11.8 16.4 44.4 1004.6 9.9 WSW 22.3 WSW 0.0 622.3
11:45 12.0 16.5 42.5 1004.3 9.1 NNE 25.0 N 0.0 656.9
11:50 11.9 16.3 43.1 1004.3 7.8 WSW 22.3 W 0.0 561.8
11:55 11.6 14.9 42.5 1004.3 9.2 SSW 30.4 SSW 0.0 436.9
12:00 11.7 16.3 43.5 1004.0 8.1 WNW 19.6 SW 0.0 538.9
12:05 11.8 14.3 42.9 1004.1 6.6 S 19.6 NW 0.0 244.0
12:10 11.8 15.3 42.9 1003.9 5.2 WNW 16.9 SW 0.0 697.1
12:15 12.3 15.6 41.1 1003.9 8.8 SE 16.9 SE 0.0 457.1
12:20 12.1 15.4 42.3 1003.9 6.1 SW 16.9 WSW 0.0 560.4
12:25 12.4 16.9 42.7 1003.8 4.6 SE 16.9 NNE 0.0 497.0
12:30 12.7 16.8 42.9 1003.6 7.5 NNE 19.6 NNW 0.0 621.8
12:35 13.1 17.4 41.9 1003.6 5.5 SW 16.9 SSW 0.0 617.2
12:40 13.3 17.8 41.8 1003.7 6.3 SSW 19.6 W 0.0 636.3
12:45 12.9 18.0 42.2 1003.7 7.8 WNW 25.0 WSW 0.0 657.3
12:50 12.5 17.5 43.5 1003.7 6.1 SSW 16.9 ESE 0.0 642.5
12:55 12.6 18.0 43.7 1003.5 8.3 S 25.0 SSW 0.0 659.0
13:00 12.8 17.4 43.4 1003.4 7.9 W 25.0 SW 0.0 603.8
13:05 12.4 16.7 43.7 1003.2 10.3 SSE 33.1 SSW 0.0 521.2
13:10 12.5 17.1 43.9 1003.1 5.4 NW 16.9 NNE 0.0 453.0
13:15 12.7 17.3 43.2 1003.1 8.5 WSW 22.3 WSW 0.0 426.7
13:20 12.9 17.5 42.6 1003.0 10.0 WSW 22.3 W 0.0 471.0
13:25 12.8 17.9 42.2 1002.9 10.1 SSW 27.7 SSW 0.0 484.9
13:30 13.1 17.7 41.6 1002.6 8.7 NW 16.9 NE 0.0 506.7
13:35 12.9 17.2 41.7 1002.6 11.0 NE 27.7 SE 0.0 461.4
13:40 13.3 17.7 41.3 1002.6 7.9 ESE 16.9 NNE 0.0 544.8
13:45 13.2 17.0 40.8 1002.5 11.4 SW 30.4 SW 0.0 419.1
13:50 13.1 17.2 41.0 1002.6 11.5 NNE 33.1 N 0.0 398.1
13:55 12.9 17.3 41.1 1002.6 6.9 WNW 14.2 SSW 0.0 420.5
14:00 13.0 17.1 40.9 1002.7 14.4 WSW 38.5 WSW 0.0 474.0
14:05 13.0 16.3 41.2 1002.4 13.2 W 27.7 WSW 0.0 459.2
14:10 12.9 16.7 41.1 1002.6 9.4 NW 27.7 NW 0.0 418.8
14:15 12.9 16.3 40.8 1002.8 12.6 W 27.7 WNW 0.0 392.3
14:20 12.9 16.0 40.4 1002.6 10.0 SW 27.7 WSW 0.0 383.7
14:25 12.9 16.1 40.6 1002.6 8.7 WSW 22.3 NNE 0.0 351.2
14:30 12.9 15.6 40.6 1002.7 14.5 WSW 35.8 SSW 0.0 163.7
14:35 12.5 15.3 41.4 1002.8 15.6 WSW 41.2 WSW 0.0 354.0
14:40 12.5 15.6 41.4 1002.7 13.5 SW 30.4 SW 0.0 285.4
14:45 12.8 16.3 41.7 1002.8 9.2 SW 19.6 WSW 0.0 251.7
14:50 13.0 16.5 40.7 1002.7 7.5 SW 22.3 WNW 0.0 201.1
14:55 13.1 16.7 40.1 1002.7 10.1 NE 33.1 NE 0.0 262.4
15:00 13.0 16.2 39.2 1002.8 10.0 SW 30.4 NNW 0.0 298.8
15:05 13.1 16.5 38.7 1002.7 10.7 WNW 33.1 NE 0.0 250.6
15:10 13.1 16.6 39.2 1002.6 10.2 NW 35.8 WNW 0.0 224.7
15:15 12.8 16.2 39.7 1002.7 9.0 WSW 27.7 NW 0.0 198.7
15:20 12.6 15.9 40.3 1002.7 8.3 NW 19.6 WNW 0.0 201.1
15:25 12.8 15.5 40.0 1002.8 7.7 W 25.0 SW 0.0 177.4
15:30 12.7 15.3 39.4 1002.8 15.2 WSW 41.2 WSW 0.0 205.4
15:35 12.6 15.0 39.2 1002.7 10.3 SSW 30.4 SW 0.0 186.8
15:40 12.5 15.0 39.3 1002.6 10.5 WSW 27.7 SSW 0.0 129.3
15:45 12.5 14.7 39.2 1002.6 10.1 WSW 35.8 WNW 0.0 160.8
15:50 12.4 14.6 39.4 1002.6 8.3 NNW 16.9 NE 0.0 105.0
15:55 12.3 14.6 39.5 1002.7 7.3 ESE 14.2 ESE 0.0 127.7
16:00 12.6 14.9 39.2 1002.7 9.0 ENE 16.9 NE 0.0 119.4
16:05 12.5 14.7 39.0 1002.6 8.8 NNE 19.6 ENE 0.0 71.0
16:10 12.1 13.0 39.1 1002.9 10.0 WSW 30.4 E 0.0 0.4
16:15 11.6 11.9 40.0 1002.8 9.8 NNW 19.6 N 0.0 0.7
16:20 11.4 11.3 40.3 1002.9 7.2 WSW 19.6 WSW 0.0 0.3
16:25 11.3 10.9 40.9 1002.9 6.6 ENE 33.1 N 0.0 21.5
16:30 11.2 10.6 40.9 1003.0 4.7 ENE 11.5 E 0.0 7.7
16:35 11.1 10.3 41.3 1003.1 7.1 NW 27.7 W 0.0 2.7
16:40 11.2 10.3 40.9 1003.0 6.8 W 16.9 WSW 0.0 1.0
16:45 11.1 10.2 40.8 1003.0 9.8 N 19.6 N 0.0 0.4
16:50 11.1 10.1 40.8 1003.3 9.6 W 22.3 W 0.0 0.1
16:55 11.1 10.2 41.2 1003.3 10.3 SE 25.0 SSE 0.0 0.0
17:00 11.0 10.0 41.5 1003.4 6.5 W 19.6 SW 0.0 0.0
17:05 10.9 9.9 41.6 1003.4 6.3 N 22.3 NW 0.0 0.2
17:10 10.9 9.8 41.4 1003.4 7.8 W 25.0 SW 0.0 0.0
17:15 10.8 9.7 41.2 1003.4 8.9 W 25.0 W 0.0 0.0
17:20 10.7 9.5 40.9 1003.6 5.8 WNW 16.9 WNW 0.0 0.0
17:25 10.6 9.3 40.7 1003.5 5.6 ENE 16.9 NNW 0.0 0.0
17:30 10.5 9.2 40.6 1003.8 8.4 WSW 22.3 W 0.0 0.0
17:35 10.4 9.1 40.5 1003.8 6.2 ENE 14.2 WSW 0.0 0.0
17:40 10.2 8.9 41.3 1003.8 4.9 E 16.9 N 0.0 0.0
17:45 10.2 8.8 41.5 1003.9 10.7 WNW 22.3 ENE 0.0 0.0
17:50 10.2 8.8 41.4 1003.9 4.6 SSW 11.5 SE 0.0 0.0
17:55 10.0 8.6 42.2 1004.0 7.4 N 19.6 NE 0.0 0.4
18:00 10.0 8.6 42.3 1004.0 7.7 NE 22.3 NNW 0.0 0.0
18:05 10.0 8.6 42.8 1004.1 4.5 NW 11.5 NNE 0.0 3.2
18:10 9.9 8.3 43.0 1004.1 3.1 NE 11.5 W 0.0 0.0
18:15 9.8 8.3 43.6 1004.2 6.8 NNE 16.9 N 0.0 35.6
18:20 9.7 8.3 44.0 1004.3 5.3 ENE 16.9 ENE 0.0 0.0
18:25 9.6 8.1 44.5 1004.3 3.5 ENE 11.5 ENE 0.0 33.8
18:30 9.5 8.0 45.0 1004.4 6.0 NNW 14.2 WNW 0.0 2.1
18:35 9.6 8.1 44.8 1004.5 4.6 S 14.2 WNW 0.0 7.6
18:40 9.4 7.6 46.3 1004.5 1.7 NE 8.8 N 0.0 1.1
18:45 9.0 7.3 47.5 1004.6 6.2 ENE 14.2 ENE 0.0 7.1
18:50 9.2 7.4 46.5 1004.7 1.1 NE 6.1 E 0.0 6.0
18:55 9.0 7.0 47.7 1004.6 2.8 NE 6.1 NNE 0.0 17.2
19:00 8.7 6.9 48.6 1004.6 2.8 SSE 11.5 ENE 0.0 5.7
19:05 8.6 6.8 48.7 1004.7 2.7 W 6.1 W 0.0 12.1
19:10 8.3 6.4 49.9 1004.7 0.5 N 3.4 N 0.0 0.7
19:15 8.0 6.0 51.4 1004.6 0.5 N 3.4 WSW 0.0 2.0
19:20 7.6 5.7 53.2 1004.7 2.3 N 6.1 NE 0.0 10.1
19:25 7.4 5.5 54.0 1004.7 1.3 N 6.1 NNW 0.0 12.2
19:30 7.2 5.4 55.0 1004.8 1.5 SW 3.4 N 0.0 22.4
19:35 7.1 5.1 55.4 1004.8 0.7 E 3.4 ENE 0.0 12.3
19:40 6.9 4.8 56.1 1004.8 0.9 WNW 3.4 WNW 0.0 25.0
19:45 6.8 4.8 56.6 1004.8 1.5 N 6.1 ENE 0.0 3.8
19:50 6.8 4.9 56.5 1004.8 1.0 NNE 6.1 W 0.0 17.5
19:55 6.7 4.7 56.9 1004.8 1.9 N 6.1 E 0.0 0.4
20:00 6.5 4.6 57.3 1004.7 2.6 NE 6.1 WNW 0.0 11.8
20:05 6.2 4.5 58.7 1004.8 2.7 W 6.1 ENE 0.0 0.0
20:10 6.0 4.3 59.6 1004.7 1.2 N 3.4 SW 0.0 11.5
20:15 5.9 4.2 60.1 1004.8 2.0 ESE 6.1 WSW 0.0 0.0
20:20 5.8 4.1 60.7 1004.8 0.3 SE 3.4 WNW 0.0 28.2
20:25 5.6 3.8 61.7 1004.7 0.4 WSW 3.4 W 0.0 0.0
20:30 5.4 3.6 62.6 1004.8 0.1 W 3.4 W 0.0 33.8
20:35 5.2 3.4 63.3 1004.8 2.3 NNE 6.1 NNE 0.0 1.4
20:40 5.1 3.4 63.8 1004.7 4.0 NW 8.8 WSW 0.0 29.5
20:45 5.2 3.5 63.3 1004.7 0.8 NNE 3.4 SSE 0.0 3.0
20:50 5.1 3.2 64.3 1004.8 0.8 N 3.4 N 0.0 21.7
20:55 4.9 3.1 65.1 1004.8 1.4 WNW 6.1 WSW 0.0 5.1
Màxima 13.5 18.0 93.9 1004.8 15.6 WSW 41.2 WSW 0.1 697.1
Mínima 3.8 2.2 38.7 1002.0
Total 0.5